Time;durP1;ratioP1;P1;durP2;ratioP2;P2;SDS_P1;SDS_P2;PMS_P1;PMS_P2;Temp;Humidity;BMP_temperature;BMP_pressure;BME280_temperature;BME280_humidity;BME280_pressure;Samples;Min_cycle;Max_cycle;Signal;HPM_P1;HPM_P2
2021/06/24 06:24:07;;;;;;;5.47;5.07;;;18.40;99.90;;;;;;6051702;23;20425;-81
2021/06/24 06:26:35;;;;;;;4.73;4.33;;;18.40;99.90;;;;;;6109016;23;20445;-81
2021/06/24 06:29:05;;;;;;;5.53;5.03;;;18.40;99.90;;;;;;6154036;23;20445;-82
2021/06/24 06:31:32;;;;;;;6.93;6.43;;;18.40;99.90;;;;;;6153582;23;20507;-81
2021/06/24 06:33:59;;;;;;;6.60;6.10;;;18.50;99.90;;;;;;6154236;23;20403;-82
2021/06/24 06:36:26;;;;;;;7.20;6.70;;;18.50;99.90;;;;;;6153988;23;20435;-81
2021/06/24 06:38:53;;;;;;;5.83;5.33;;;18.50;99.90;;;;;;6153691;23;20410;-82
2021/06/24 06:41:20;;;;;;;6.57;6.10;;;18.60;99.90;;;;;;6153295;23;20424;-81
2021/06/24 06:43:48;;;;;;;6.27;5.77;;;18.60;99.90;;;;;;6153707;23;20426;-82
2021/06/24 06:46:14;;;;;;;5.63;5.17;;;18.50;99.90;;;;;;6153927;23;20466;-80
2021/06/24 06:48:53;;;;;;;;;;;;;;;;;;;;;
2021/06/24 06:51:23;;;;;;;5.40;5.00;;;18.50;99.90;;;;;;6146542;23;20421;-81
2021/06/24 06:53:50;;;;;;;4.50;4.10;;;18.50;99.90;;;;;;6151405;23;20406;-82
2021/06/24 06:56:16;;;;;;;4.60;4.30;;;18.60;99.90;;;;;;6136978;23;20916;-83
2021/06/24 06:58:43;;;;;;;4.60;4.20;;;18.60;99.90;;;;;;6134849;23;20415;-83
2021/06/24 07:01:11;;;;;;;3.90;3.60;;;18.60;99.90;;;;;;6134814;23;20441;-82
2021/06/24 07:03:38;;;;;;;4.87;4.57;;;18.70;99.90;;;;;;6135436;23;20485;-82
2021/06/24 07:06:05;;;;;;;4.43;3.90;;;18.70;99.90;;;;;;6134748;23;20421;-82
2021/06/24 07:08:32;;;;;;;4.40;4.10;;;18.80;99.90;;;;;;6134978;23;20456;-81
2021/06/24 07:10:59;;;;;;;5.07;3.83;;;18.90;99.90;;;;;;6134429;23;20435;-81
2021/06/24 07:13:25;;;;;;;4.60;4.30;;;19.00;99.90;;;;;;6133020;23;20421;-84
2021/06/24 07:15:56;;;;;;;4.43;4.03;;;19.20;99.90;;;;;;6134444;23;20423;-82
2021/06/24 07:18:24;;;;;;;4.53;4.23;;;19.30;99.90;;;;;;6135421;23;20732;-82
2021/06/24 07:20:51;;;;;;;4.50;4.20;;;19.50;99.90;;;;;;6135121;23;20435;-82
2021/06/24 07:23:18;;;;;;;4.60;4.20;;;19.60;99.90;;;;;;6134283;23;20412;-83
2021/06/24 07:29:30;;;;;;;5.07;4.77;;;19.80;99.90;;;;;;6046167;23;20396;-82
2021/06/24 07:31:57;;;;;;;4.67;4.37;;;19.80;99.90;;;;;;6071537;23;20432;-84
2021/06/24 07:34:47;;;;;;;5.43;5.03;;;19.80;99.90;;;;;;6100076;23;20449;-84
2021/06/24 07:49:36;;;;;;;4.80;4.50;;;20.50;99.90;;;;;;6107839;23;20431;-86
2021/06/24 07:52:06;;;;;;;3.53;3.33;;;20.60;99.90;;;;;;6141005;23;20420;-87
2021/06/24 07:54:46;;;;;;;4.37;4.10;;;20.80;99.90;;;;;;6141558;23;20456;-87
2021/06/24 07:57:21;;;;;;;5.33;4.83;;;21.00;99.90;;;;;;6141765;23;20415;-87
2021/06/24 07:59:56;;;;;;;4.50;4.20;;;21.20;99.90;;;;;;6141908;23;20439;-87
2021/06/24 08:02:48;;;;;;;3.60;3.37;;;21.30;99.90;;;;;;6140647;23;20395;-86
2021/06/24 08:05:27;;;;;;;4.70;4.27;;;21.30;99.90;;;;;;6142383;23;20401;-87
2021/06/24 08:08:01;;;;;;;3.37;3.17;;;21.30;99.90;;;;;;6141515;23;20382;-86
2021/06/24 08:10:32;;;;;;;3.23;3.03;;;21.30;99.90;;;;;;6140194;23;20435;-86
2021/06/24 08:13:04;;;;;;;4.30;4.00;;;21.40;99.90;;;;;;6141177;23;20389;-87
2021/06/24 08:15:31;;;;;;;4.40;3.90;;;21.70;99.90;;;;;;6141259;23;20890;-87
2021/06/24 08:17:59;;;;;;;4.77;4.47;;;21.80;99.90;;;;;;6140475;23;20423;-86
2021/06/24 08:20:36;;;;;;;4.70;4.37;;;21.90;99.90;;;;;;6140850;23;20793;-86
2021/06/24 08:23:12;;;;;;;4.80;4.50;;;21.90;99.90;;;;;;6141157;23;20401;-86
2021/06/24 08:26:04;;;;;;;4.97;4.57;;;21.80;99.90;;;;;;6142200;23;20380;-87
2021/06/24 08:31:44;;;;;;;;;;;;;;;;;;;;;
2021/06/24 08:34:22;;;;;;;3.57;3.33;;;22.10;99.90;;;;;;6138781;23;20421;-86
2021/06/24 08:37:10;;;;;;;4.00;3.70;;;22.30;99.90;;;;;;6141678;23;20432;-86
2021/06/24 08:39:48;;;;;;;3.27;3.07;;;22.50;99.90;;;;;;6141417;23;20430;-86
2021/06/24 08:42:22;;;;;;;4.00;3.80;;;22.60;99.90;;;;;;6138804;23;20464;-86
2021/06/24 08:44:50;;;;;;;3.17;2.97;;;22.80;99.90;;;;;;6141858;23;20442;-87
2021/06/24 08:47:35;;;;;;;4.40;4.03;;;22.80;99.90;;;;;;6140884;23;20421;-86
2021/06/24 08:50:12;;;;;;;3.17;2.97;;;22.90;99.90;;;;;;6141089;23;20705;-87
2021/06/24 08:53:05;;;;;;;3.30;3.10;;;22.80;99.90;;;;;;6140713;23;20414;-86
2021/06/24 08:59:15;;;;;;;3.40;3.10;;;22.70;99.90;;;;;;6101761;23;20420;-86
2021/06/24 09:02:11;;;;;;;5.87;3.50;;;22.70;99.90;;;;;;6043724;23;20445;-86
2021/06/24 09:04:58;;;;;;;3.60;3.40;;;22.60;99.90;;;;;;6110186;23;20767;-86
2021/06/24 09:07:46;;;;;;;3.00;2.80;;;22.50;99.90;;;;;;6141161;23;20452;-85
2021/06/24 09:10:21;;;;;;;3.00;2.80;;;22.50;99.90;;;;;;6139914;23;20425;-85
2021/06/24 09:13:03;;;;;;;2.60;2.40;;;22.50;99.90;;;;;;6142168;23;21022;-86
2021/06/24 09:18:40;;;;;;;4.40;3.63;;;22.50;99.90;;;;;;6124986;23;20480;-85
2021/06/24 09:21:24;;;;;;;3.33;3.13;;;22.40;99.90;;;;;;6150757;23;20432;-85
2021/06/24 09:24:08;;;;;;;3.67;3.37;;;22.50;99.90;;;;;;6148704;23;20428;-87
2021/06/24 09:27:17;;;;;;;;;;;;;;;;;;;;;
2021/06/24 09:36:59;;;;;;;4.93;4.60;;;22.80;99.90;;;;;;5875815;24;20424;-86
2021/06/24 09:39:52;;;;;;;4.80;4.50;;;22.90;99.90;;;;;;6028296;23;20408;-86
2021/06/24 09:42:20;;;;;;;4.83;4.53;;;22.90;99.90;;;;;;6130541;23;20448;-85
2021/06/24 09:44:50;;;;;;;4.40;4.00;;;23.00;99.90;;;;;;6132036;23;20397;-85
2021/06/24 09:47:20;;;;;;;4.40;4.10;;;23.10;99.90;;;;;;6131631;23;20497;-84
2021/06/24 09:49:58;;;;;;;4.97;4.47;;;23.30;99.90;;;;;;6132883;23;20416;-83
2021/06/24 09:52:26;;;;;;;5.07;4.73;;;23.50;99.90;;;;;;6131816;23;20402;-84
2021/06/24 09:55:03;;;;;;;4.83;4.43;;;23.70;99.90;;;;;;6132734;23;20406;-83
2021/06/24 09:57:30;;;;;;;4.40;4.10;;;24.00;99.90;;;;;;6130876;23;20395;-83
2021/06/24 09:59:58;;;;;;;5.53;4.30;;;24.30;99.90;;;;;;6131585;23;20454;-84
2021/06/24 10:02:25;;;;;;;4.57;4.27;;;24.50;99.90;;;;;;6130799;23;20757;-86
2021/06/24 10:04:51;;;;;;;4.37;4.07;;;24.80;99.90;;;;;;6131093;23;20872;-84
2021/06/24 10:07:21;;;;;;;3.70;3.50;;;25.00;99.90;;;;;;6130852;23;20422;-84
2021/06/24 10:09:48;;;;;;;3.70;3.40;;;25.10;99.90;;;;;;6131286;23;20443;-82
2021/06/24 10:12:17;;;;;;;3.10;2.90;;;25.30;99.90;;;;;;6130192;23;20439;-84
2021/06/24 10:14:44;;;;;;;3.83;3.47;;;25.50;99.90;;;;;;6130841;23;20431;-84
2021/06/24 10:17:13;;;;;;;3.83;3.10;;;25.60;99.90;;;;;;6131953;23;20425;-83
2021/06/24 10:19:42;;;;;;;2.60;2.50;;;25.60;99.90;;;;;;6131325;23;20427;-83
2021/06/24 10:22:18;;;;;;;3.43;2.80;;;25.60;99.90;;;;;;6131075;23;20468;-85
2021/06/24 10:24:49;;;;;;;2.80;2.70;;;25.40;99.70;;;;;;6131567;23;20399;-86
2021/06/24 10:27:16;;;;;;;2.60;2.40;;;25.40;98.70;;;;;;6133661;23;20396;-86
2021/06/24 10:29:46;;;;;;;2.87;2.70;;;25.30;98.60;;;;;;6145529;23;20416;-86
2021/06/24 10:32:29;;;;;;;2.90;2.70;;;25.30;99.10;;;;;;6132881;23;20514;-84
2021/06/24 10:34:59;;;;;;;2.90;2.80;;;25.30;99.90;;;;;;6135771;23;20424;-84
2021/06/24 10:37:28;;;;;;;3.07;2.87;;;25.40;99.90;;;;;;6134447;23;20450;-85
2021/06/24 10:39:59;;;;;;;1.60;1.50;;;25.40;99.40;;;;;;6131842;23;20508;-85
2021/06/24 10:42:32;;;;;;;1.90;1.80;;;25.50;98.90;;;;;;6131690;23;20488;-85
2021/06/24 10:45:01;;;;;;;1.70;1.60;;;25.50;97.40;;;;;;6131747;23;20424;-86
2021/06/24 10:47:41;;;;;;;1.93;1.83;;;25.50;98.90;;;;;;6135020;23;20499;-86
2021/06/24 10:50:41;;;;;;;2.23;2.13;;;25.40;98.30;;;;;;6131702;23;20401;-85
2021/06/24 10:53:36;;;;;;;2.67;2.20;;;25.50;99.90;;;;;;6132222;23;20445;-85
2021/06/24 10:56:18;;;;;;;1.80;1.70;;;25.40;97.50;;;;;;6133093;23;20408;-85
2021/06/24 10:58:45;;;;;;;3.43;1.97;;;25.40;98.70;;;;;;6132096;23;20491;-84
2021/06/24 11:01:12;;;;;;;1.63;1.53;;;25.40;99.20;;;;;;6133018;23;20533;-84
2021/06/24 11:03:44;;;;;;;2.37;2.27;;;25.30;97.20;;;;;;6134985;23;20491;-85
2021/06/24 11:06:13;;;;;;;3.83;2.60;;;25.10;98.10;;;;;;6132462;23;20487;-86
2021/06/24 11:08:41;;;;;;;2.20;2.10;;;25.00;99.30;;;;;;6132022;23;20496;-85
2021/06/24 11:11:09;;;;;;;1.93;1.83;;;24.90;99.20;;;;;;6130670;23;20438;-85
2021/06/24 11:13:46;;;;;;;2.70;2.50;;;24.90;98.50;;;;;;6131755;23;20420;-84
2021/06/24 11:16:32;;;;;;;2.10;1.90;;;25.10;99.90;;;;;;6133445;23;20420;-83
2021/06/24 11:19:06;;;;;;;2.00;1.90;;;25.70;99.90;;;;;;6143654;23;20431;-85
2021/06/24 11:21:56;;;;;;;2.37;2.27;;;26.10;96.80;;;;;;6132513;23;20456;-85
2021/06/24 11:24:28;;;;;;;1.70;1.70;;;26.60;99.90;;;;;;6134264;23;20477;-86
2021/06/24 11:26:58;;;;;;;1.80;1.70;;;27.00;97.50;;;;;;6133371;23;20499;-83
2021/06/24 11:29:37;;;;;;;6.23;4.60;;;27.30;99.90;;;;;;6130418;23;20408;-85
2021/06/24 11:32:14;;;;;;;1.97;1.87;;;27.60;97.30;;;;;;6130703;23;20428;-86
2021/06/24 11:37:33;;;;;;;1.57;1.47;;;28.60;93.00;;;;;;6132763;23;20410;-85
2021/06/24 11:40:01;;;;;;;1.70;1.60;;;28.90;99.10;;;;;;6136894;23;20402;-85
2021/06/24 11:42:32;;;;;;;2.10;2.00;;;28.90;95.60;;;;;;6136128;23;20413;-86
2021/06/24 12:16:33;;;;;;;1.60;1.50;;;26.00;91.20;;;;;;5904674;24;20413;-85
2021/06/24 12:19:07;;;;;;;1.43;1.33;;;26.10;92.50;;;;;;6010895;23;20443;-86
2021/06/24 12:22:00;;;;;;;1.20;1.10;;;26.10;92.40;;;;;;6012985;23;20454;-86
2021/06/24 12:24:33;;;;;;;1.63;1.53;;;26.10;90.40;;;;;;6014028;23;20452;-82
2021/06/24 12:27:18;;;;;;;4.20;1.27;;;26.20;91.70;;;;;;6039105;23;20479;-82
2021/06/24 12:29:44;;;;;;;1.40;1.30;;;26.30;91.10;;;;;;6074140;23;20406;-83
2021/06/24 12:32:13;;;;;;;1.40;1.10;;;26.50;91.20;;;;;;6075805;23;20526;-82
2021/06/24 12:34:40;;;;;;;1.70;1.30;;;26.60;89.50;;;;;;6075481;23;20415;-83
2021/06/24 12:37:07;;;;;;;0.80;0.80;;;26.70;88.00;;;;;;6075857;23;20443;-81
2021/06/24 12:39:34;;;;;;;1.30;1.30;;;26.70;87.80;;;;;;6075841;23;20416;-82
2021/06/24 12:42:05;;;;;;;0.90;0.90;;;27.00;89.40;;;;;;6076918;23;20464;-83
2021/06/24 12:44:37;;;;;;;0.83;0.83;;;27.30;85.90;;;;;;6076415;23;20402;-84
2021/06/24 12:47:04;;;;;;;0.70;0.70;;;27.60;82.30;;;;;;6070803;23;20414;-85
2021/06/24 12:49:35;;;;;;;1.00;1.00;;;28.00;81.80;;;;;;6070220;23;20424;-83
2021/06/24 12:52:03;;;;;;;1.20;1.20;;;28.40;81.60;;;;;;6071463;23;20445;-83
2021/06/24 12:54:39;;;;;;;4.10;1.30;;;28.70;82.10;;;;;;6072875;23;20427;-83
2021/06/24 12:57:06;;;;;;;1.00;0.90;;;29.10;82.80;;;;;;6087333;23;20389;-82
2021/06/24 12:59:33;;;;;;;1.40;1.30;;;29.50;79.90;;;;;;6074565;23;20421;-83
2021/06/24 13:02:05;;;;;;;1.33;0.87;;;30.00;76.40;;;;;;6072892;23;20452;-83
2021/06/24 13:04:40;;;;;;;1.10;1.10;;;30.30;71.30;;;;;;6072504;23;20405;-83
2021/06/24 13:07:07;;;;;;;0.97;0.97;;;30.50;73.80;;;;;;6074533;23;20393;-84
2021/06/24 13:09:37;;;;;;;1.57;0.87;;;30.90;72.40;;;;;;6075478;23;20429;-83
2021/06/24 13:12:07;;;;;;;0.73;0.70;;;31.50;73.80;;;;;;6076262;23;20431;-83
2021/06/24 13:14:37;;;;;;;1.30;0.90;;;32.10;68.80;;;;;;6075060;23;20395;-82
2021/06/24 13:17:10;;;;;;;2.20;1.07;;;32.50;64.20;;;;;;6078584;23;20416;-83
2021/06/24 13:19:40;;;;;;;1.27;0.77;;;32.60;63.60;;;;;;6084147;23;20457;-83
2021/06/24 13:22:12;;;;;;;1.30;1.20;;;33.00;60.50;;;;;;6083437;23;20461;-83
2021/06/24 13:24:40;;;;;;;1.33;0.90;;;33.50;60.80;;;;;;6076910;23;20394;-84
2021/06/24 13:27:10;;;;;;;1.00;0.90;;;33.60;57.90;;;;;;6072188;23;20495;-82
2021/06/24 13:29:38;;;;;;;2.77;1.10;;;33.30;56.50;;;;;;6073026;23;20498;-83
2021/06/24 13:32:05;;;;;;;1.40;1.30;;;32.60;57.50;;;;;;6071625;23;20444;-82
2021/06/24 13:34:35;;;;;;;1.50;1.40;;;31.60;59.50;;;;;;6079742;23;20473;-82
2021/06/24 13:37:18;;;;;;;1.77;1.60;;;29.50;67.60;;;;;;6085988;23;20473;-87
2021/06/24 13:43:09;;;;;;;;;;;;;;;;;;;;;
2021/06/24 13:46:12;;;;;;;4.87;2.20;;;25.30;92.20;;;;;;6071753;23;20382;-87
2021/06/24 14:05:51;;;;;;;2.17;2.07;;;17.80;99.90;;;;;;6006004;23;20417;-84
2021/06/24 14:08:35;;;;;;;3.60;2.57;;;17.60;99.90;;;;;;6130937;23;20378;-84
2021/06/24 14:14:23;;;;;;;2.13;1.90;;;17.50;99.90;;;;;;5927121;23;20412;-85
2021/06/24 14:17:15;;;;;;;2.43;2.20;;;17.60;99.90;;;;;;5982357;24;20866;-85
2021/06/24 14:44:53;;;;;;;2.40;2.30;;;19.00;99.90;;;;;;6102213;23;20449;-85
2021/06/24 14:47:27;;;;;;;1.90;1.80;;;19.30;99.90;;;;;;6129607;23;20392;-85
2021/06/24 14:50:04;;;;;;;;;;;;;;;;;;;;;
2021/06/24 14:52:50;;;;;;;;;;;;;;;;;;;;;
2021/06/24 14:55:27;;;;;;;2.00;1.90;;;20.40;99.90;;;;;;6099776;23;20565;-84
2021/06/24 14:58:15;;;;;;;1.77;1.67;;;21.10;99.90;;;;;;6099521;23;20778;-83
2021/06/24 15:00:56;;;;;;;1.93;1.83;;;21.90;99.90;;;;;;6098704;23;20493;-84
2021/06/24 15:03:23;;;;;;;3.53;2.00;;;22.80;99.90;;;;;;6098509;23;20743;-84
2021/06/24 15:05:52;;;;;;;1.77;1.67;;;23.70;99.90;;;;;;6098782;23;20898;-84
2021/06/24 15:08:21;;;;;;;3.33;1.70;;;24.40;99.90;;;;;;6098851;23;20401;-83
2021/06/24 15:10:49;;;;;;;1.90;1.80;;;25.00;99.90;;;;;;6098468;23;20506;-83
2021/06/24 15:13:18;;;;;;;1.50;1.33;;;25.30;99.90;;;;;;6099518;23;20742;-84
2021/06/24 15:19:33;;;;;;;1.57;1.47;;;26.10;99.90;;;;;;5967138;23;20403;-85
2021/06/24 15:28:50;;;;;;;1.63;1.53;;;25.80;99.90;;;;;;6098328;23;20410;-85
2021/06/24 15:31:33;;;;;;;1.77;1.67;;;25.70;99.90;;;;;;6097529;23;20431;-85
2021/06/24 15:34:14;;;;;;;2.13;2.03;;;25.60;99.90;;;;;;6097756;23;20446;-85
2021/06/24 15:36:42;;;;;;;1.53;1.47;;;25.50;99.90;;;;;;6100168;23;20444;-82
2021/06/24 15:39:09;;;;;;;2.20;2.10;;;25.50;99.90;;;;;;6101426;23;20420;-84
2021/06/24 15:52:00;;;;;;;2.03;1.83;;;26.90;99.90;;;;;;5965865;23;20958;-85
2021/06/24 15:54:30;;;;;;;2.50;2.40;;;27.20;99.90;;;;;;6096490;23;20410;-82
2021/06/24 15:57:01;;;;;;;3.20;1.93;;;27.60;99.90;;;;;;6098979;23;20425;-83
2021/06/24 15:59:32;;;;;;;2.73;2.53;;;28.10;99.90;;;;;;6100780;23;20396;-82
2021/06/24 16:01:58;;;;;;;2.60;2.50;;;28.50;99.90;;;;;;6100146;23;20979;-85
2021/06/24 16:04:25;;;;;;;2.10;2.00;;;29.00;99.90;;;;;;6100476;23;20416;-83
2021/06/24 16:06:53;;;;;;;2.83;2.53;;;29.40;99.20;;;;;;6100068;23;20744;-84
2021/06/24 16:09:20;;;;;;;2.97;2.77;;;29.50;97.60;;;;;;6098860;23;20421;-84
2021/06/24 16:11:47;;;;;;;3.20;3.00;;;29.80;96.90;;;;;;6098601;23;20965;-84
2021/06/24 16:14:15;;;;;;;4.27;3.90;;;30.10;96.00;;;;;;6099247;23;20931;-83
2021/06/24 16:16:42;;;;;;;2.43;2.33;;;29.90;95.10;;;;;;6098289;23;20416;-83
2021/06/24 16:19:09;;;;;;;2.60;2.50;;;29.80;95.70;;;;;;6099179;23;20749;-84
2021/06/24 16:21:37;;;;;;;3.10;2.90;;;30.20;97.90;;;;;;6101167;23;20451;-83
2021/06/24 16:24:05;;;;;;;3.27;3.07;;;30.30;96.30;;;;;;6100577;23;20421;-82
2021/06/24 16:26:32;;;;;;;3.07;2.87;;;30.50;95.40;;;;;;6099901;23;20414;-82
2021/06/24 16:28:59;;;;;;;2.20;2.10;;;30.50;95.20;;;;;;6099432;23;20942;-81
2021/06/24 16:31:27;;;;;;;4.03;3.73;;;30.50;93.90;;;;;;6100104;23;20471;-81
2021/06/24 16:33:53;;;;;;;3.27;3.07;;;30.10;95.00;;;;;;6101528;23;20413;-80
2021/06/24 16:36:21;;;;;;;4.17;3.97;;;29.30;95.00;;;;;;6103056;23;20423;-80
2021/06/24 16:38:49;;;;;;;4.47;3.53;;;28.40;95.50;;;;;;6100046;23;20431;-80
2021/06/24 16:41:17;;;;;;;3.67;3.37;;;27.70;96.70;;;;;;6099698;23;20443;-80
2021/06/24 16:43:44;;;;;;;4.03;3.77;;;27.50;98.70;;;;;;6103495;23;20420;-81
2021/06/24 16:46:10;;;;;;;4.17;3.87;;;27.40;98.70;;;;;;6101073;23;20425;-84
2021/06/24 16:48:38;;;;;;;3.33;3.03;;;27.30;97.00;;;;;;6105093;23;20420;-81
2021/06/24 16:51:08;;;;;;;4.13;3.83;;;27.40;99.80;;;;;;6104875;23;20929;-84
2021/06/24 16:53:35;;;;;;;4.47;4.13;;;27.60;98.70;;;;;;6109265;23;20473;-83
2021/06/24 16:56:02;;;;;;;3.90;3.60;;;27.50;98.00;;;;;;6107741;23;20415;-85
2021/06/24 16:58:30;;;;;;;4.43;4.13;;;26.90;98.20;;;;;;6105520;23;20415;-83
2021/06/24 17:00:57;;;;;;;4.83;4.43;;;26.60;97.00;;;;;;6102870;23;20438;-81
2021/06/24 17:03:24;;;;;;;5.03;4.63;;;25.90;99.10;;;;;;6102658;23;20448;-80
2021/06/24 17:05:52;;;;;;;4.50;4.20;;;25.00;99.90;;;;;;6103256;23;20412;-80
2021/06/24 17:08:19;;;;;;;5.13;4.83;;;24.20;99.90;;;;;;6102627;23;20427;-80
2021/06/24 17:10:45;;;;;;;4.70;4.40;;;23.40;99.90;;;;;;6103365;23;20442;-81
2021/06/24 17:13:12;;;;;;;4.90;4.57;;;22.90;99.90;;;;;;6102464;23;20411;-79
2021/06/24 17:15:39;;;;;;;5.33;5.00;;;22.50;99.90;;;;;;6103346;23;20410;-78
2021/06/24 17:18:06;;;;;;;6.07;5.50;;;22.00;99.90;;;;;;6105995;23;20457;-79
2021/06/24 17:20:33;;;;;;;5.70;5.20;;;21.70;99.90;;;;;;6106693;23;20433;-78
2021/06/24 17:23:01;;;;;;;5.50;5.10;;;21.40;99.90;;;;;;6102943;23;20451;-79
2021/06/24 17:25:27;;;;;;;6.43;5.87;;;21.10;99.90;;;;;;6103435;23;20420;-80
2021/06/24 17:27:54;;;;;;;5.93;5.43;;;20.80;99.90;;;;;;6103763;23;20419;-79
2021/06/24 17:30:22;;;;;;;6.50;6.00;;;20.70;99.90;;;;;;6105025;23;20432;-80
2021/06/24 17:32:49;;;;;;;5.97;5.57;;;20.60;99.90;;;;;;6103778;23;20410;-81
2021/06/24 17:35:16;;;;;;;5.77;5.40;;;20.50;99.90;;;;;;6103459;23;20412;-80
2021/06/24 17:37:43;;;;;;;6.33;5.93;;;20.40;99.90;;;;;;6103135;23;20416;-81
2021/06/24 17:40:13;;;;;;;6.53;5.87;;;20.30;99.90;;;;;;6103147;23;20412;-80
2021/06/24 17:42:41;;;;;;;5.63;5.23;;;20.10;99.90;;;;;;6103009;23;20444;-81
2021/06/24 17:45:09;;;;;;;6.87;6.37;;;20.00;99.90;;;;;;6103006;23;20937;-81
2021/06/24 17:47:36;;;;;;;6.27;5.80;;;19.90;99.90;;;;;;6103903;23;20419;-81
2021/06/24 17:50:03;;;;;;;6.10;5.60;;;20.00;99.90;;;;;;6102702;23;20405;-80
2021/06/24 17:52:30;;;;;;;7.87;7.37;;;19.90;99.90;;;;;;6101850;23;20413;-82
2021/06/24 17:54:57;;;;;;;6.57;6.00;;;19.90;99.90;;;;;;6101224;23;20413;-80
2021/06/24 17:57:25;;;;;;;7.33;6.67;;;19.90;99.90;;;;;;6101459;23;20909;-81
2021/06/24 17:59:52;;;;;;;8.00;7.33;;;19.70;99.90;;;;;;6102532;23;20423;-81
2021/06/24 18:02:18;;;;;;;9.27;8.57;;;19.50;99.90;;;;;;6101364;23;20459;-82
2021/06/24 18:04:45;;;;;;;8.20;6.90;;;19.40;99.90;;;;;;6103775;23;20435;-83
2021/06/24 18:07:12;;;;;;;7.60;7.00;;;19.30;99.90;;;;;;6105146;23;20415;-83
2021/06/24 18:09:39;;;;;;;7.80;7.10;;;19.20;99.90;;;;;;6107028;23;20419;-82
2021/06/24 18:12:06;;;;;;;7.90;7.30;;;19.10;99.90;;;;;;6106559;23;20431;-83
2021/06/24 18:14:34;;;;;;;7.80;7.20;;;19.00;99.90;;;;;;6112039;23;20417;-83
2021/06/24 18:17:02;;;;;;;8.57;7.93;;;19.10;99.90;;;;;;6108915;23;20426;-83
2021/06/24 18:19:45;;;;;;;12.43;11.40;;;19.20;99.90;;;;;;6111143;23;20443;-84
2021/06/24 18:25:14;;;;;;;11.10;10.20;;;19.40;99.90;;;;;;6097738;23;20512;-82
2021/06/24 18:27:52;;;;;;;12.83;11.73;;;19.50;99.90;;;;;;6113091;23;20393;-82
2021/06/24 18:30:26;;;;;;;10.13;9.43;;;19.60;99.90;;;;;;6112658;23;20459;-81
2021/06/24 18:32:58;;;;;;;10.50;9.63;;;19.70;99.90;;;;;;6113021;23;20403;-80
2021/06/24 18:35:27;;;;;;;10.50;9.60;;;19.80;99.90;;;;;;6113210;23;20408;-81
2021/06/24 18:38:17;;;;;;;11.23;10.20;;;19.70;99.90;;;;;;6112823;23;20414;-81
2021/06/24 18:40:55;;;;;;;10.97;9.93;;;19.80;99.90;;;;;;6112666;23;20424;-81
2021/06/24 18:43:27;;;;;;;10.77;9.87;;;19.80;99.90;;;;;;6113513;23;21021;-81
2021/06/24 18:45:55;;;;;;;11.97;10.87;;;19.80;99.90;;;;;;6106498;23;20988;-82
2021/06/24 18:48:33;;;;;;;;;;;;;;;;;;;;;
2021/06/24 18:51:05;;;;;;;12.03;10.97;;;19.90;99.90;;;;;;6095929;23;20467;-82
2021/06/24 18:53:35;;;;;;;11.70;10.70;;;19.90;99.90;;;;;;6104996;23;20393;-82
2021/06/24 18:56:02;;;;;;;12.90;11.33;;;19.90;99.90;;;;;;6104681;23;20409;-82
2021/06/24 18:58:35;;;;;;;12.23;11.33;;;19.90;99.90;;;;;;6104668;23;20416;-82
2021/06/24 19:01:03;;;;;;;11.47;10.63;;;19.90;99.90;;;;;;6104812;23;20459;-82
2021/06/24 19:03:32;;;;;;;11.90;10.87;;;19.90;99.90;;;;;;6104149;23;20844;-81
2021/06/24 19:06:11;;;;;;;11.50;10.60;;;19.90;99.90;;;;;;6104649;23;20475;-82
2021/06/24 19:08:47;;;;;;;12.57;11.50;;;19.80;99.90;;;;;;6104815;23;20403;-82
2021/06/24 19:11:30;;;;;;;11.50;10.50;;;19.70;99.90;;;;;;6105080;23;20429;-81
2021/06/24 19:14:09;;;;;;;;;;;;;;;;;;;;;
2021/06/24 19:16:37;;;;;;;6.07;5.57;;;19.60;99.90;;;;;;6101437;23;20436;-80
2021/06/24 19:19:04;;;;;;;5.20;4.70;;;19.30;99.90;;;;;;6103894;23;20415;-83
2021/06/24 19:25:04;;;;;;;5.17;4.67;;;18.70;99.90;;;;;;6102037;23;20472;-83
2021/06/24 19:28:10;;;;;;;;;;;;;;;;;;;;;
2021/06/24 19:30:43;;;;;;;4.60;4.30;;;18.50;99.90;;;;;;6013851;23;20473;-83
2021/06/24 19:33:23;;;;;;;4.83;4.43;;;18.40;99.90;;;;;;6075966;23;20413;-82
2021/06/24 19:35:55;;;;;;;5.23;4.80;;;18.30;99.90;;;;;;6104656;23;20404;-83
2021/06/24 19:38:25;;;;;;;4.03;3.70;;;18.20;99.90;;;;;;6103787;23;20398;-82
2021/06/24 19:40:52;;;;;;;3.90;3.60;;;18.10;99.90;;;;;;6103910;23;21099;-83
2021/06/24 19:43:19;;;;;;;4.00;3.17;;;17.90;99.90;;;;;;6103516;23;20446;-82
2021/06/24 19:45:46;;;;;;;4.50;4.20;;;17.70;99.90;;;;;;6106073;23;20445;-86
2021/06/24 19:48:19;;;;;;;4.23;3.93;;;17.60;99.90;;;;;;6114947;23;20433;-86
2021/06/24 19:50:46;;;;;;;4.83;4.53;;;17.60;99.90;;;;;;6114064;23;20899;-85
2021/06/24 19:53:13;;;;;;;4.47;4.07;;;17.70;99.90;;;;;;6113118;23;20430;-85
2021/06/24 19:55:40;;;;;;;4.73;4.33;;;17.70;99.90;;;;;;6115926;23;20502;-85
2021/06/24 19:58:26;;;;;;;4.30;4.00;;;17.80;99.90;;;;;;6113800;23;20503;-85
2021/06/24 20:05:04;;;;;;;;;;;;;;;;;;;;;
2021/06/24 20:07:56;;;;;;;4.80;4.40;;;17.80;99.90;;;;;;5952105;24;20421;-85
2021/06/24 20:11:12;;;;;;;4.37;4.03;;;17.70;99.90;;;;;;6012821;23;20454;-85
2021/06/24 20:30:45;;;;;;;;;;;;;;;;;;;;;
2021/06/24 20:33:37;;;;;;;4.87;4.20;;;17.90;99.90;;;;;;5941767;24;20413;-85
2021/06/24 20:36:48;;;;;;;5.17;4.77;;;17.90;99.90;;;;;;5981346;23;20490;-85
2021/06/24 20:43:15;;;;;;;4.73;4.33;;;17.80;99.90;;;;;;6015081;23;20424;-84
2021/06/24 20:45:44;;;;;;;3.77;3.47;;;17.80;99.90;;;;;;6032708;23;20439;-83
